createdAt,value
2023-04-29T00:02:06.787Z,11.40
2023-04-29T00:04:35.329Z,11.30
2023-04-29T00:07:03.043Z,11.20
2023-04-29T00:09:30.657Z,11.10
2023-04-29T00:11:58.660Z,11.10
2023-04-29T00:14:26.164Z,11.00
2023-04-29T00:16:53.715Z,11.10
2023-04-29T00:19:21.442Z,11.10
2023-04-29T00:21:49.471Z,11.10
2023-04-29T00:24:17.286Z,11.10
2023-04-29T00:26:44.856Z,11.20
2023-04-29T00:29:12.473Z,11.20
2023-04-29T00:31:40.063Z,11.30
2023-04-29T00:34:07.604Z,11.40
2023-04-29T00:36:35.131Z,11.40
2023-04-29T00:39:03.192Z,11.50
2023-04-29T00:41:32.205Z,11.30
2023-04-29T00:43:59.762Z,11.40
2023-04-29T00:46:27.933Z,11.30
2023-04-29T00:48:55.508Z,11.30
2023-04-29T00:51:23.205Z,11.40
2023-04-29T00:53:50.925Z,11.40
2023-04-29T00:56:21.521Z,11.40
2023-04-29T00:58:52.808Z,11.40
2023-04-29T01:01:21.961Z,11.30
2023-04-29T01:03:51.054Z,11.40
2023-04-29T01:06:33.507Z,11.40
2023-04-29T01:09:17.938Z,11.50
2023-04-29T01:12:07.199Z,11.40
2023-04-29T01:14:35.949Z,11.40
2023-04-29T01:17:11.477Z,11.30
2023-04-29T01:19:46.108Z,11.20
2023-04-29T01:22:18.888Z,11.30
2023-04-29T01:24:46.869Z,11.30
2023-04-29T01:27:34.658Z,11.30
2023-04-29T01:30:32.452Z,11.20
2023-04-29T01:33:47.930Z,11.30
2023-04-29T01:36:28.188Z,11.20
2023-04-29T01:39:14.585Z,11.20
2023-04-29T01:42:06.879Z,11.00
2023-04-29T01:44:36.250Z,10.90
2023-04-29T01:47:04.104Z,10.90
2023-04-29T01:49:36.446Z,10.90
2023-04-29T01:52:04.104Z,11.00
2023-04-29T01:54:32.259Z,11.00
2023-04-29T01:57:00.905Z,10.90
2023-04-29T01:59:30.217Z,11.00
2023-04-29T02:01:59.124Z,11.00
2023-04-29T02:04:28.854Z,10.90
2023-04-29T02:06:56.365Z,10.80
2023-04-29T02:09:23.881Z,10.80
2023-04-29T02:11:51.406Z,10.80
2023-04-29T02:14:18.899Z,10.80
2023-04-29T02:16:46.476Z,10.80
2023-04-29T02:19:14.168Z,10.80
2023-04-29T02:21:41.694Z,10.90
2023-04-29T02:24:09.506Z,10.80
2023-04-29T02:26:38.614Z,10.80
2023-04-29T02:29:06.357Z,10.80
2023-04-29T02:31:33.887Z,10.80
2023-04-29T02:34:01.733Z,10.90
2023-04-29T02:36:29.333Z,10.90
2023-04-29T02:38:57.222Z,10.90
2023-04-29T02:41:25.996Z,10.90
2023-04-29T02:43:53.806Z,10.90
2023-04-29T02:46:21.394Z,10.90
2023-04-29T02:48:48.874Z,10.90
2023-04-29T02:51:18.004Z,10.90
2023-04-29T02:53:45.689Z,10.90
2023-04-29T02:56:13.212Z,11.00
2023-04-29T02:58:42.285Z,11.00
2023-04-29T03:01:09.767Z,11.10
2023-04-29T03:03:37.859Z,11.00
2023-04-29T03:06:05.648Z,11.00
2023-04-29T03:08:33.347Z,11.00
2023-04-29T03:11:00.846Z,11.00
2023-04-29T03:13:28.450Z,11.00
2023-04-29T03:15:58.766Z,11.00
2023-04-29T03:18:26.288Z,11.00
2023-04-29T03:20:54.400Z,11.00
2023-04-29T03:23:22.660Z,11.00
2023-04-29T03:25:50.233Z,10.90
2023-04-29T03:28:18.054Z,10.90
2023-04-29T03:30:45.623Z,11.10
2023-04-29T03:33:13.131Z,11.20
2023-04-29T03:35:40.842Z,11.20
2023-04-29T03:38:08.360Z,11.30
2023-04-29T03:40:35.990Z,11.30
2023-04-29T03:43:04.108Z,11.30
2023-04-29T03:45:31.732Z,11.10
2023-04-29T03:47:59.265Z,11.00
2023-04-29T03:50:26.841Z,10.80
2023-04-29T03:52:54.417Z,10.70
2023-04-29T03:55:21.925Z,10.70
2023-04-29T03:57:49.504Z,10.70
2023-04-29T04:00:17.453Z,10.70
2023-04-29T04:02:45.679Z,10.80
2023-04-29T04:05:13.747Z,10.70
2023-04-29T04:07:41.327Z,10.70
2023-04-29T04:10:09.193Z,10.70
2023-04-29T04:12:36.789Z,10.80
2023-04-29T04:15:04.535Z,10.80
2023-04-29T04:17:32.081Z,10.70
2023-04-29T04:19:59.640Z,10.70
2023-04-29T04:22:27.157Z,10.70
2023-04-29T04:24:58.042Z,10.70
2023-04-29T04:27:25.698Z,10.80
2023-04-29T04:29:56.359Z,10.80
2023-04-29T04:32:23.992Z,10.90
2023-04-29T04:34:51.879Z,10.90
2023-04-29T04:37:19.441Z,10.80
2023-04-29T04:39:47.443Z,10.90
2023-04-29T04:42:15.112Z,10.90
2023-04-29T04:44:42.574Z,10.90
2023-04-29T04:47:11.692Z,10.90
2023-04-29T04:49:39.534Z,10.90
2023-04-29T04:52:07.158Z,11.00
2023-04-29T04:54:35.605Z,11.00
2023-04-29T04:57:06.331Z,11.10
2023-04-29T04:59:34.435Z,11.20
2023-04-29T05:02:01.980Z,11.20
2023-04-29T05:04:29.649Z,11.30
2023-04-29T05:06:57.271Z,11.30
2023-04-29T05:09:24.831Z,11.20
2023-04-29T05:11:52.502Z,11.10
2023-04-29T05:14:20.008Z,11.10
2023-04-29T05:16:47.608Z,11.10
2023-04-29T05:19:15.175Z,11.00
2023-04-29T05:21:42.646Z,10.90
2023-04-29T05:24:10.348Z,10.90
2023-04-29T05:26:38.542Z,10.80
2023-04-29T05:29:06.033Z,10.70
2023-04-29T05:31:33.651Z,10.70
2023-04-29T05:34:01.297Z,10.60
2023-04-29T05:36:29.162Z,10.70
2023-04-29T05:38:56.806Z,10.80
2023-04-29T05:41:25.182Z,10.80
2023-04-29T05:43:52.956Z,10.90
2023-04-29T05:46:20.811Z,10.90
2023-04-29T05:48:48.332Z,10.90
2023-04-29T05:51:17.332Z,10.80
2023-04-29T05:53:45.122Z,10.80
2023-04-29T05:56:12.716Z,10.90
2023-04-29T05:58:40.399Z,10.90
2023-04-29T06:01:07.943Z,10.90
2023-04-29T06:03:36.100Z,11.00
2023-04-29T06:06:04.589Z,10.90
2023-04-29T06:08:32.348Z,11.00
2023-04-29T06:10:59.808Z,10.90
2023-04-29T06:13:27.628Z,11.00
2023-04-29T06:15:55.140Z,11.00
2023-04-29T06:18:22.793Z,11.10
2023-04-29T06:20:52.143Z,11.20
2023-04-29T06:23:19.603Z,11.20
2023-04-29T06:25:47.160Z,11.10
2023-04-29T06:28:14.925Z,11.10
2023-04-29T06:30:42.470Z,11.00
2023-04-29T06:33:10.000Z,11.00
2023-04-29T06:35:41.344Z,11.00
2023-04-29T06:38:09.163Z,10.90
2023-04-29T06:40:36.724Z,11.00
2023-04-29T06:43:04.829Z,11.00
2023-04-29T06:45:32.968Z,11.00
2023-04-29T06:48:00.754Z,11.00
2023-04-29T06:50:28.866Z,11.00
2023-04-29T06:52:56.865Z,10.90
2023-04-29T06:55:24.505Z,10.80
2023-04-29T06:57:52.165Z,10.90
2023-04-29T07:00:21.453Z,10.90
2023-04-29T07:02:49.015Z,11.10
2023-04-29T07:05:16.710Z,11.20
2023-04-29T07:07:44.285Z,11.30
2023-04-29T07:10:11.786Z,11.40
2023-04-29T07:12:39.449Z,11.40
2023-04-29T07:15:07.854Z,11.40
2023-04-29T07:17:35.440Z,11.30
2023-04-29T07:20:04.335Z,11.30
2023-04-29T07:22:31.956Z,11.30
2023-04-29T07:24:59.538Z,11.30
2023-04-29T07:27:27.305Z,11.30
2023-04-29T07:29:54.895Z,11.50
2023-04-29T07:32:23.009Z,11.40
2023-04-29T07:34:50.564Z,11.50
2023-04-29T07:37:18.198Z,11.50
2023-04-29T07:39:46.164Z,11.50
2023-04-29T07:42:13.751Z,11.60
2023-04-29T07:44:41.574Z,11.80
2023-04-29T07:47:09.093Z,11.90
2023-04-29T07:49:36.912Z,11.90
2023-04-29T07:52:08.022Z,12.10
2023-04-29T07:54:38.639Z,12.30
2023-04-29T07:57:06.243Z,12.30
2023-04-29T07:59:34.102Z,12.50
2023-04-29T08:02:01.815Z,12.60
2023-04-29T08:04:29.657Z,12.70
2023-04-29T08:06:57.360Z,12.60
2023-04-29T08:09:24.893Z,12.80
2023-04-29T08:11:52.376Z,12.80
2023-04-29T08:14:19.959Z,12.60
2023-04-29T08:16:47.827Z,12.40
2023-04-29T08:19:15.293Z,12.50
2023-04-29T08:21:42.954Z,12.30
2023-04-29T08:24:10.669Z,12.40
2023-04-29T08:26:40.036Z,12.40
2023-04-29T08:29:07.859Z,12.50
2023-04-29T08:31:35.672Z,12.50
2023-04-29T08:34:03.242Z,12.50
2023-04-29T08:36:30.812Z,12.50
2023-04-29T08:38:58.393Z,12.50
2023-04-29T08:41:26.009Z,12.40
2023-04-29T08:43:53.632Z,12.40
2023-04-29T08:46:23.928Z,12.40
2023-04-29T08:48:52.556Z,12.50
2023-04-29T08:51:20.185Z,12.60
2023-04-29T08:53:58.696Z,13.00
2023-04-29T08:56:28.164Z,13.30
2023-04-29T08:58:59.142Z,13.40
2023-04-29T09:01:29.479Z,13.50
2023-04-29T09:04:14.932Z,13.70
2023-04-29T09:06:42.495Z,14.00
2023-04-29T09:09:10.542Z,14.20
2023-04-29T09:11:38.643Z,14.50
2023-04-29T09:14:06.702Z,14.60
2023-04-29T09:16:35.722Z,14.60
2023-04-29T09:19:03.295Z,14.80
2023-04-29T09:21:33.752Z,15.00
2023-04-29T09:24:03.542Z,15.20
2023-04-29T09:26:44.023Z,15.20
2023-04-29T09:29:18.506Z,15.60
2023-04-29T09:31:47.005Z,15.90
2023-04-29T09:34:15.111Z,16.00
2023-04-29T09:36:51.079Z,15.90
2023-04-29T09:39:20.411Z,15.80
2023-04-29T09:41:53.876Z,15.40
2023-04-29T09:44:25.145Z,15.20
2023-04-29T09:46:57.417Z,15.40
2023-04-29T09:49:26.600Z,15.70
2023-04-29T09:51:56.717Z,15.70
2023-04-29T09:54:28.544Z,16.10
2023-04-29T09:56:58.409Z,16.20
2023-04-29T09:59:26.634Z,17.00
2023-04-29T10:01:58.945Z,16.80
2023-04-29T10:04:28.084Z,16.80
2023-04-29T10:06:56.743Z,17.40
2023-04-29T10:09:24.874Z,17.10
2023-04-29T10:11:53.944Z,17.10
2023-04-29T10:14:26.393Z,17.40
2023-04-29T10:17:08.693Z,17.50
2023-04-29T10:19:40.190Z,17.20
2023-04-29T10:22:17.256Z,17.20
2023-04-29T10:24:46.015Z,17.10
2023-04-29T10:27:14.572Z,16.90
2023-04-29T10:29:44.661Z,16.70
2023-04-29T10:32:14.615Z,16.80
2023-04-29T10:34:43.644Z,16.70
2023-04-29T10:37:12.155Z,16.50
2023-04-29T10:39:48.227Z,16.50
2023-04-29T10:42:50.935Z,16.90
2023-04-29T10:45:24.131Z,16.70
2023-04-29T10:48:06.653Z,16.10
2023-04-29T10:50:46.912Z,16.00
2023-04-29T10:53:23.798Z,16.20
2023-04-29T10:55:59.939Z,16.60
2023-04-29T10:58:41.380Z,17.30
2023-04-29T11:01:11.532Z,17.50
2023-04-29T11:03:59.934Z,17.50
2023-04-29T11:06:36.586Z,17.80
2023-04-29T11:09:20.063Z,17.80
2023-04-29T11:11:58.968Z,16.80
2023-04-29T11:14:30.720Z,16.70
2023-04-29T11:17:03.577Z,16.60
2023-04-29T11:19:36.871Z,16.50
2023-04-29T11:22:10.187Z,16.80
2023-04-29T11:24:49.504Z,16.90
2023-04-29T11:27:18.875Z,16.90
2023-04-29T11:29:50.947Z,16.60
2023-04-29T11:32:23.323Z,16.20
2023-04-29T11:34:51.050Z,16.70
2023-04-29T11:37:23.744Z,17.10
2023-04-29T11:39:52.512Z,17.50
2023-04-29T11:42:23.642Z,18.10
2023-04-29T11:44:57.126Z,18.50
2023-04-29T11:47:28.666Z,18.60
2023-04-29T11:50:10.317Z,18.70
2023-04-29T11:52:40.909Z,19.10
2023-04-29T11:55:12.365Z,19.30
2023-04-29T11:57:40.692Z,19.40
2023-04-29T12:00:13.139Z,19.30
2023-04-29T12:02:45.246Z,19.30
2023-04-29T12:05:13.723Z,19.50
2023-04-29T12:07:41.646Z,19.40
2023-04-29T12:10:11.440Z,19.70
2023-04-29T12:12:41.593Z,19.70
2023-04-29T12:15:10.568Z,19.60
2023-04-29T12:17:39.617Z,19.50
2023-04-29T12:20:11.510Z,19.30
2023-04-29T12:22:39.534Z,19.00
2023-04-29T12:25:08.119Z,18.20
2023-04-29T12:27:37.151Z,18.20
2023-04-29T12:30:09.749Z,18.30
2023-04-29T12:32:38.686Z,18.40
2023-04-29T12:35:07.488Z,18.30
2023-04-29T12:37:35.597Z,18.60
2023-04-29T12:40:03.842Z,18.70
2023-04-29T12:42:34.584Z,18.10
2023-04-29T12:45:02.112Z,17.70
2023-04-29T12:47:37.377Z,17.50
2023-04-29T12:50:07.520Z,17.30
2023-04-29T12:52:36.726Z,17.30
2023-04-29T12:55:05.028Z,17.60
2023-04-29T12:57:32.823Z,17.20
2023-04-29T13:00:00.520Z,17.20
2023-04-29T13:02:28.571Z,17.20
2023-04-29T13:04:56.790Z,17.10
2023-04-29T13:07:24.556Z,16.90
2023-04-29T13:09:52.075Z,16.80
2023-04-29T13:12:19.663Z,16.60
2023-04-29T13:14:47.108Z,16.70
2023-04-29T13:17:15.039Z,16.80
2023-04-29T13:19:51.527Z,16.70
2023-04-29T13:22:20.193Z,17.10
2023-04-29T13:24:47.885Z,17.40
2023-04-29T13:27:15.409Z,17.30
2023-04-29T13:29:42.889Z,17.50
2023-04-29T13:32:10.672Z,18.10
2023-04-29T13:34:38.248Z,17.70
2023-04-29T13:37:05.981Z,17.50
2023-04-29T13:39:37.909Z,18.10
2023-04-29T13:42:06.627Z,18.40
2023-04-29T13:44:48.636Z,18.60
2023-04-29T13:47:25.712Z,19.10
2023-04-29T13:50:25.528Z,19.20
2023-04-29T13:55:43.631Z,19.60
2023-04-29T13:58:43.841Z,20.00
2023-04-29T14:01:17.180Z,20.10
2023-04-29T14:03:35.952Z,19.80
2023-04-29T14:06:03.895Z,20.20
2023-04-29T14:08:31.555Z,19.50
2023-04-29T14:10:59.232Z,19.40
2023-04-29T14:13:26.949Z,18.20
2023-04-29T14:15:54.711Z,18.10
2023-04-29T14:18:22.309Z,18.10
2023-04-29T14:20:49.799Z,17.70
2023-04-29T14:23:17.387Z,17.80
2023-04-29T14:25:45.061Z,17.90
2023-04-29T14:28:12.870Z,18.20
2023-04-29T14:30:41.634Z,18.30
2023-04-29T14:33:09.232Z,17.80
2023-04-29T14:35:36.709Z,18.10
2023-04-29T14:38:04.534Z,18.70
2023-04-29T14:40:32.073Z,18.90
2023-04-29T14:42:59.698Z,18.90
2023-04-29T14:45:27.312Z,19.00
2023-04-29T14:47:54.800Z,18.90
2023-04-29T14:50:25.285Z,18.20
2023-04-29T14:52:52.790Z,18.50
2023-04-29T14:55:20.363Z,18.50
2023-04-29T14:57:48.152Z,18.50
2023-04-29T15:00:16.152Z,18.70
2023-04-29T15:02:43.889Z,19.00
2023-04-29T15:05:11.511Z,19.20
2023-04-29T15:07:39.015Z,19.10
2023-04-29T15:10:09.553Z,19.10
2023-04-29T15:12:37.141Z,19.10
2023-04-29T15:15:05.049Z,18.80
2023-04-29T15:17:32.624Z,18.90
2023-04-29T15:20:00.195Z,19.00
2023-04-29T15:22:27.632Z,18.80
2023-04-29T15:24:55.599Z,19.00
2023-04-29T15:27:23.235Z,19.10
2023-04-29T15:29:54.587Z,19.10
2023-04-29T15:32:22.428Z,19.00
2023-04-29T15:34:49.999Z,18.80
2023-04-29T15:37:17.506Z,18.60
2023-04-29T15:39:45.025Z,18.80
2023-04-29T15:42:12.737Z,18.80
2023-04-29T15:44:40.335Z,19.10
2023-04-29T15:47:07.848Z,19.10
2023-04-29T15:49:35.504Z,19.00
2023-04-29T15:52:02.962Z,18.90
2023-04-29T15:54:30.879Z,18.80
2023-04-29T15:56:58.669Z,18.50
2023-04-29T15:59:26.173Z,18.00
2023-04-29T16:01:53.709Z,18.00
2023-04-29T16:04:21.304Z,18.00
2023-04-29T16:06:48.901Z,18.00
2023-04-29T16:09:16.396Z,18.00
2023-04-29T16:11:44.035Z,17.90
2023-04-29T16:14:11.684Z,17.90
2023-04-29T16:16:39.420Z,17.80
2023-04-29T16:19:06.954Z,17.90
2023-04-29T16:21:34.855Z,17.90
2023-04-29T16:24:02.421Z,17.90
2023-04-29T16:26:30.494Z,17.70
2023-04-29T16:28:58.104Z,17.80
2023-04-29T16:31:25.791Z,17.80
2023-04-29T16:33:55.564Z,17.60
2023-04-29T16:36:23.827Z,17.50
2023-04-29T16:38:55.204Z,17.70
2023-04-29T16:41:23.346Z,17.80
2023-04-29T16:43:51.116Z,17.70
2023-04-29T16:46:18.990Z,17.60
2023-04-29T16:48:46.798Z,17.70
2023-04-29T16:51:14.738Z,17.70
2023-04-29T16:54:02.462Z,17.60
2023-04-29T16:56:30.057Z,17.50
2023-04-29T16:58:57.788Z,17.60
2023-04-29T17:01:25.633Z,17.70
2023-04-29T17:03:53.274Z,17.70
2023-04-29T17:06:20.861Z,17.90
2023-04-29T17:08:51.272Z,17.60
2023-04-29T17:11:19.152Z,17.60
2023-04-29T17:13:46.997Z,17.70
2023-04-29T17:16:15.090Z,17.50
2023-04-29T17:18:43.189Z,17.40
2023-04-29T17:21:10.846Z,17.20
2023-04-29T17:23:38.720Z,17.00
2023-04-29T17:26:07.538Z,17.00
2023-04-29T17:28:35.269Z,16.90
2023-04-29T17:31:02.930Z,16.90
2023-04-29T17:33:36.210Z,16.90
2023-04-29T17:36:06.073Z,17.00
2023-04-29T17:38:33.651Z,17.00
2023-04-29T17:41:02.180Z,17.10
2023-04-29T17:43:32.528Z,17.20
2023-04-29T17:46:00.242Z,17.10
2023-04-29T17:48:28.117Z,17.10
2023-04-29T17:50:55.752Z,17.10
2023-04-29T17:53:23.470Z,17.00
2023-04-29T17:55:50.957Z,16.90
2023-04-29T17:58:18.766Z,16.90
2023-04-29T18:00:47.194Z,17.00
2023-04-29T18:03:15.072Z,16.90
2023-04-29T18:05:42.760Z,16.90
2023-04-29T18:08:10.280Z,17.00
2023-04-29T18:10:38.036Z,17.00
2023-04-29T18:13:05.767Z,17.00
2023-04-29T18:15:33.355Z,16.90
2023-04-29T18:18:00.912Z,16.80
2023-04-29T18:20:28.498Z,16.90
2023-04-29T18:22:56.096Z,16.80
2023-04-29T18:25:23.665Z,16.80
2023-04-29T18:27:52.722Z,16.80
2023-04-29T18:30:24.595Z,16.70
2023-04-29T18:32:52.126Z,16.60
2023-04-29T18:35:19.602Z,16.50
2023-04-29T18:37:47.429Z,16.40
2023-04-29T18:40:15.330Z,16.30
2023-04-29T18:42:43.341Z,16.10
2023-04-29T18:45:11.166Z,16.20
2023-04-29T18:47:38.704Z,16.00
2023-04-29T18:50:06.739Z,16.00
2023-04-29T18:52:34.759Z,15.90
2023-04-29T18:55:02.273Z,15.80
2023-04-29T18:57:30.102Z,15.70
2023-04-29T18:59:57.820Z,15.70
2023-04-29T19:02:25.356Z,15.60
2023-04-29T19:04:52.928Z,15.50
2023-04-29T19:07:20.644Z,15.40
2023-04-29T19:09:48.124Z,15.30
2023-04-29T19:12:15.605Z,15.20
2023-04-29T19:14:43.186Z,15.10
2023-04-29T19:17:10.760Z,15.00
2023-04-29T19:19:38.260Z,14.70
2023-04-29T19:22:07.531Z,14.60
2023-04-29T19:24:37.129Z,14.40
2023-04-29T19:27:04.743Z,14.20
2023-04-29T19:29:32.324Z,14.20
2023-04-29T19:31:59.918Z,14.20
2023-04-29T19:34:27.438Z,14.20
2023-04-29T19:36:55.038Z,14.10
2023-04-29T19:39:22.697Z,14.10
2023-04-29T19:41:50.273Z,13.90
2023-04-29T19:44:17.790Z,13.80
2023-04-29T19:46:45.511Z,13.70
2023-04-29T19:49:13.569Z,13.50
2023-04-29T19:51:41.606Z,13.40
2023-04-29T19:54:09.745Z,13.40
2023-04-29T19:56:37.218Z,13.20
2023-04-29T19:59:04.783Z,13.00
2023-04-29T20:01:32.237Z,12.70
2023-04-29T20:03:59.897Z,12.60
2023-04-29T20:06:27.529Z,12.70
2023-04-29T20:08:55.004Z,12.70
2023-04-29T20:11:23.990Z,12.70
2023-04-29T20:13:52.455Z,12.70
2023-04-29T20:16:20.141Z,12.60
2023-04-29T20:18:48.041Z,12.60
2023-04-29T20:21:15.680Z,12.60
2023-04-29T20:23:43.194Z,12.60
2023-04-29T20:26:11.114Z,12.60
2023-04-29T20:28:39.343Z,12.60
2023-04-29T20:31:08.671Z,12.70
2023-04-29T20:33:36.329Z,12.60
2023-04-29T20:36:06.933Z,12.60
2023-04-29T20:38:37.864Z,12.50
2023-04-29T20:41:08.509Z,12.60
2023-04-29T20:43:36.208Z,12.70
2023-04-29T20:46:03.772Z,12.70
2023-04-29T20:48:31.302Z,12.70
2023-04-29T20:50:59.007Z,12.80
2023-04-29T20:53:26.545Z,12.90
2023-04-29T20:55:54.131Z,12.80
2023-04-29T20:58:21.870Z,12.80
2023-04-29T21:00:49.455Z,12.80
2023-04-29T21:03:17.023Z,12.70
2023-04-29T21:05:45.069Z,12.70
2023-04-29T21:08:12.605Z,12.70
2023-04-29T21:10:40.113Z,12.60
2023-04-29T21:13:07.749Z,12.60
2023-04-29T21:15:36.153Z,12.60
2023-04-29T21:18:04.758Z,12.60
2023-04-29T21:20:32.565Z,12.60
2023-04-29T21:23:00.137Z,12.70
2023-04-29T21:25:27.641Z,12.70
2023-04-29T21:27:55.686Z,12.50
2023-04-29T21:30:23.556Z,12.40
2023-04-29T21:32:51.228Z,12.40
2023-04-29T21:35:19.079Z,12.30
2023-04-29T21:37:47.296Z,12.30
2023-04-29T21:40:14.955Z,12.30
2023-04-29T21:42:44.502Z,12.30
2023-04-29T21:45:18.270Z,12.40
2023-04-29T21:47:46.059Z,12.50
2023-04-29T21:50:13.734Z,12.50
2023-04-29T21:52:41.795Z,12.30
2023-04-29T21:55:09.833Z,12.10
2023-04-29T21:57:44.072Z,11.90
2023-04-29T22:00:33.055Z,11.90
2023-04-29T22:03:02.395Z,12.00
2023-04-29T22:05:30.590Z,11.90
2023-04-29T22:08:00.236Z,11.70
2023-04-29T22:10:28.202Z,11.70
2023-04-29T22:12:56.363Z,11.80
2023-04-29T22:15:28.795Z,11.70
2023-04-29T22:17:57.728Z,11.70
2023-04-29T22:20:27.236Z,11.50
2023-04-29T22:22:55.527Z,11.30
2023-04-29T22:25:23.260Z,11.10
2023-04-29T22:27:52.349Z,11.00
2023-04-29T22:30:21.036Z,11.00
2023-04-29T22:32:48.649Z,10.90
2023-04-29T22:35:16.405Z,10.90
2023-04-29T22:37:43.984Z,10.90
2023-04-29T22:40:12.945Z,10.80
2023-04-29T22:42:42.239Z,10.80
2023-04-29T22:45:12.671Z,10.80
2023-04-29T22:47:40.513Z,10.90
2023-04-29T22:50:08.498Z,11.00
2023-04-29T22:52:36.370Z,11.00
2023-04-29T22:55:04.058Z,10.90
2023-04-29T22:57:32.364Z,11.00
2023-04-29T23:00:00.312Z,10.90
2023-04-29T23:02:29.564Z,10.90
2023-04-29T23:04:58.325Z,10.90
2023-04-29T23:07:26.396Z,10.90
2023-04-29T23:09:54.418Z,10.90
2023-04-29T23:12:22.563Z,10.90
2023-04-29T23:14:51.138Z,10.80
2023-04-29T23:17:18.855Z,10.60
2023-04-29T23:19:46.460Z,10.70
2023-04-29T23:22:13.955Z,10.60
2023-04-29T23:24:41.573Z,10.60
2023-04-29T23:27:09.603Z,10.50
2023-04-29T23:29:37.074Z,10.40
2023-04-29T23:32:04.715Z,10.40
2023-04-29T23:34:32.845Z,10.30
2023-04-29T23:37:01.653Z,10.10
2023-04-29T23:39:29.297Z,10.10
2023-04-29T23:41:56.820Z,9.90
2023-04-29T23:44:25.446Z,9.80
2023-04-29T23:46:53.767Z,9.80
2023-04-29T23:49:21.539Z,9.80
2023-04-29T23:51:49.080Z,9.80
2023-04-29T23:54:16.556Z,9.70
2023-04-29T23:56:44.215Z,9.70
2023-04-29T23:59:11.853Z,9.60
